GPM weather

Grand Prairie Municipal Airport
Grand Prairie, Texas, United States

Public forecast

Using degrees Fahrenheit for public forecast. Weather courtesy of forecast.io.

Current aviation weather report (METAR) for Grand Prairie Municipal Airport

Retrieved 2020/08/08 11:35 UTC (25 minutes ago):

KGPM 081135Z AUTO 17005KT 10SM CLR 26/20 A3006 RMK AO2 T02570203

Closest aviation forecast (TAF) to Grand Prairie Municipal Airport

Closest forecast is Arlington Municipal Airport, 3.2 nm (5.9 km) SW. Retrieved 2020/08/08 06:22 UTC (6 hours ago):

TAF KGKY 080520Z 0806/0906 17010KT P6SM FEW250